Time;durP1;ratioP1;P1;durP2;ratioP2;P2;SDS_P1;SDS_P2;PMS_P1;PMS_P2;Temp;Humidity;BMP_temperature;BMP_pressure;BME280_temperature;BME280_humidity;BME280_pressure;Samples;Min_cycle;Max_cycle;Signal;HPM_P1;HPM_P2
2023/07/12 00:01:36;;;;;;;6.10;2.90;;;17.90;99.90;;;;;;5096142;28;20048;-67
2023/07/12 00:04:02;;;;;;;6.43;3.07;;;17.90;99.90;;;;;;5115515;28;20043;-67
2023/07/12 00:06:39;;;;;;;6.53;2.83;;;17.90;99.90;;;;;;5115019;28;20138;-68
2023/07/12 00:09:13;;;;;;;8.48;2.90;;;17.80;99.90;;;;;;5113976;28;20048;-68
2023/07/12 00:11:40;;;;;;;6.60;3.25;;;17.90;99.90;;;;;;5114265;28;20134;-67
2023/07/12 00:14:05;;;;;;;8.70;2.90;;;17.90;99.90;;;;;;5113217;28;20062;-67
2023/07/12 00:16:36;;;;;;;6.27;2.90;;;17.90;99.90;;;;;;5096293;28;20044;-69
2023/07/12 00:19:04;;;;;;;6.15;2.70;;;17.90;99.90;;;;;;5114306;28;20048;-68
2023/07/12 00:21:30;;;;;;;6.13;2.95;;;17.90;99.90;;;;;;5114367;28;20067;-69
2023/07/12 00:23:58;;;;;;;5.43;3.03;;;17.90;99.90;;;;;;5113212;28;20043;-68
2023/07/12 00:26:35;;;;;;;6.47;3.05;;;17.90;99.90;;;;;;5096599;28;20040;-68
2023/07/12 00:29:04;;;;;;;8.23;3.10;;;17.90;99.90;;;;;;5113068;28;20547;-69
2023/07/12 00:31:30;;;;;;;5.35;2.78;;;17.90;99.90;;;;;;5113024;28;20051;-69
2023/07/12 00:33:57;;;;;;;7.60;3.00;;;17.80;99.90;;;;;;5113661;28;20097;-70
2023/07/12 00:36:28;;;;;;;7.50;3.30;;;17.90;99.90;;;;;;5114070;28;20079;-68
2023/07/12 00:38:55;;;;;;;5.30;3.17;;;17.80;99.90;;;;;;5112569;28;20081;-69
2023/07/12 00:41:59;;;;;;;6.35;3.03;;;17.80;99.90;;;;;;5113484;28;20058;-68
2023/07/12 00:44:47;;;;;;;6.82;2.85;;;17.80;99.90;;;;;;5113673;28;20447;-68
2023/07/12 00:47:15;;;;;;;10.18;3.30;;;17.80;99.90;;;;;;5114243;28;20380;-68
2023/07/12 00:49:40;;;;;;;7.53;3.63;;;17.80;99.90;;;;;;5096093;28;20062;-68
2023/07/12 00:52:13;;;;;;;8.50;3.30;;;17.70;99.90;;;;;;5112576;28;20382;-68
2023/07/12 00:54:53;;;;;;;5.32;3.20;;;17.70;99.90;;;;;;5095504;28;20391;-68
2023/07/12 00:57:21;;;;;;;6.85;3.30;;;17.70;99.90;;;;;;5112608;28;20532;-68
2023/07/12 00:59:47;;;;;;;6.70;2.95;;;17.70;99.90;;;;;;5113595;28;20040;-69
2023/07/12 01:02:14;;;;;;;5.57;2.92;;;17.70;99.90;;;;;;5113382;28;20043;-68
2023/07/12 01:04:42;;;;;;;;;;;17.70;99.90;;;;;;5112818;28;20047;-68
2023/07/12 01:07:09;;;;;;;5.07;2.70;;;17.70;99.90;;;;;;5112347;28;19920;-68
2023/07/12 01:09:35;;;;;;;6.15;2.97;;;17.60;99.90;;;;;;5112191;28;20378;-68
2023/07/12 01:12:01;;;;;;;6.23;3.07;;;17.60;99.90;;;;;;5113440;28;20118;-72
2023/07/12 01:14:27;;;;;;;7.30;2.80;;;17.60;99.90;;;;;;5113026;28;20050;-67
2023/07/12 01:17:02;;;;;;;6.78;3.13;;;17.60;99.90;;;;;;5112926;28;20048;-68
2023/07/12 01:19:31;;;;;;;8.80;3.50;;;17.50;99.90;;;;;;5113385;28;20050;-68
2023/07/12 01:21:57;;;;;;;7.18;3.28;;;17.50;99.90;;;;;;5096295;28;20044;-69
2023/07/12 01:24:25;;;;;;;7.47;3.20;;;17.50;99.90;;;;;;5112247;28;20039;-70
2023/07/12 01:26:56;;;;;;;7.03;2.75;;;17.50;99.90;;;;;;5113407;28;20058;-69
2023/07/12 01:29:23;;;;;;;8.07;3.00;;;17.50;99.90;;;;;;5112303;28;20160;-69
2023/07/12 01:31:49;;;;;;;9.73;3.50;;;17.50;99.90;;;;;;5112177;28;20050;-68
2023/07/12 01:34:16;;;;;;;6.47;3.08;;;17.40;99.90;;;;;;5111851;28;20122;-68
2023/07/12 01:36:43;;;;;;;8.55;3.47;;;17.40;99.90;;;;;;5095466;28;20047;-67
2023/07/12 01:39:09;;;;;;;7.95;3.58;;;17.40;99.90;;;;;;5109628;28;20059;-69
2023/07/12 01:41:35;;;;;;;9.20;3.70;;;17.40;99.90;;;;;;5115671;28;20138;-69
2023/07/12 01:44:01;;;;;;;9.23;3.53;;;17.40;99.90;;;;;;5117056;28;20052;-68
2023/07/12 01:46:27;;;;;;;7.40;4.10;;;17.30;99.90;;;;;;5115846;28;20449;-68
2023/07/12 01:48:53;;;;;;;10.33;4.00;;;17.30;99.90;;;;;;5117841;28;20122;-68
2023/07/12 01:51:20;;;;;;;6.73;3.73;;;17.30;99.90;;;;;;5116530;28;20035;-68
2023/07/12 01:53:46;;;;;;;;;;;17.30;99.90;;;;;;5116157;28;20036;-69
2023/07/12 01:56:12;;;;;;;9.27;3.60;;;17.30;99.90;;;;;;5117026;28;19920;-67
2023/07/12 01:58:38;;;;;;;7.43;3.50;;;17.20;99.90;;;;;;5116986;28;20047;-69
2023/07/12 02:01:04;;;;;;;8.93;4.23;;;17.20;99.90;;;;;;5115995;28;20432;-68
2023/07/12 02:03:30;;;;;;;6.32;3.65;;;17.20;99.90;;;;;;5117324;28;20079;-69
2023/07/12 02:05:57;;;;;;;8.67;3.53;;;17.20;99.90;;;;;;5098366;28;20079;-67
2023/07/12 02:08:23;;;;;;;;;;;17.10;99.90;;;;;;5116177;28;20052;-69
2023/07/12 02:10:49;;;;;;;9.30;3.53;;;17.10;99.90;;;;;;5117638;28;19919;-68
2023/07/12 02:13:16;;;;;;;8.37;3.47;;;17.10;99.90;;;;;;5115363;28;20050;-69
2023/07/12 02:15:42;;;;;;;7.75;3.55;;;17.10;99.90;;;;;;5117255;28;20087;-68
2023/07/12 02:18:10;;;;;;;8.03;3.33;;;17.10;99.90;;;;;;5098675;28;20040;-69
2023/07/12 02:20:36;;;;;;;6.00;2.90;;;17.10;99.90;;;;;;5116559;28;20082;-67
2023/07/12 02:23:01;;;;;;;6.43;3.47;;;17.00;99.90;;;;;;5098444;28;20080;-69
2023/07/12 02:25:27;;;;;;;8.50;3.53;;;17.10;99.90;;;;;;5098418;28;20039;-67
2023/07/12 02:27:53;;;;;;;7.57;3.23;;;17.00;99.90;;;;;;5116495;28;20088;-68
2023/07/12 02:30:22;;;;;;;9.00;3.37;;;17.00;99.90;;;;;;5098033;28;20130;-70
2023/07/12 02:32:48;;;;;;;9.45;3.63;;;17.00;99.90;;;;;;5116290;28;20168;-69
2023/07/12 02:35:15;;;;;;;9.38;3.45;;;17.00;99.90;;;;;;5116080;28;20476;-68
2023/07/12 02:37:40;;;;;;;7.15;2.42;;;16.90;99.90;;;;;;5115392;28;20058;-68
2023/07/12 02:40:08;;;;;;;9.60;3.10;;;16.90;99.90;;;;;;5114640;28;20055;-68
2023/07/12 02:42:34;;;;;;;9.50;3.67;;;16.90;99.90;;;;;;5115146;28;20086;-68
2023/07/12 02:44:59;;;;;;;6.53;2.93;;;16.80;99.90;;;;;;5114875;28;20088;-67
2023/07/12 02:47:25;;;;;;;10.17;3.00;;;16.70;99.90;;;;;;5097920;28;20048;-68
2023/07/12 02:49:51;;;;;;;9.17;2.80;;;16.70;99.90;;;;;;5115200;28;20051;-67
2023/07/12 02:52:16;;;;;;;10.13;3.20;;;16.60;99.90;;;;;;5114649;28;20054;-68
2023/07/12 02:54:42;;;;;;;10.07;2.93;;;16.60;99.90;;;;;;5115767;28;20040;-68
2023/07/12 02:57:12;;;;;;;12.80;3.40;;;16.60;99.90;;;;;;5115916;28;20054;-69
2023/07/12 02:59:38;;;;;;;11.13;3.22;;;16.60;99.90;;;;;;5115842;28;20054;-68
2023/07/12 03:02:07;;;;;;;14.10;3.37;;;16.50;99.90;;;;;;5115826;28;20085;-68
2023/07/12 03:04:33;;;;;;;9.48;3.08;;;16.50;99.90;;;;;;5115636;28;20044;-68
2023/07/12 03:06:59;;;;;;;11.60;3.60;;;16.60;99.90;;;;;;5115322;28;20051;-69
2023/07/12 03:09:25;;;;;;;13.87;3.60;;;16.50;99.90;;;;;;5115518;28;20088;-68
2023/07/12 03:11:51;;;;;;;10.33;3.20;;;16.60;99.90;;;;;;5115353;28;20050;-68
2023/07/12 03:14:18;;;;;;;12.50;4.03;;;16.60;99.90;;;;;;5113858;28;20047;-70
2023/07/12 03:16:45;;;;;;;8.50;3.28;;;16.60;99.90;;;;;;5114200;28;20140;-68
2023/07/12 03:19:12;;;;;;;9.18;3.03;;;16.60;99.90;;;;;;5115302;28;20047;-69
2023/07/12 03:21:37;;;;;;;;;;;16.50;99.90;;;;;;5116243;28;20476;-69
2023/07/12 03:24:04;;;;;;;12.40;3.33;;;16.50;99.90;;;;;;5149406;27;19920;-69
2023/07/12 03:26:29;;;;;;;9.93;3.63;;;16.50;99.90;;;;;;5097465;28;20584;-68
2023/07/12 03:28:56;;;;;;;11.02;3.63;;;16.40;99.90;;;;;;5115509;28;20285;-68
2023/07/12 03:31:22;;;;;;;12.23;3.63;;;16.30;99.90;;;;;;5114039;28;20070;-69
2023/07/12 03:33:48;;;;;;;13.40;3.80;;;16.30;99.90;;;;;;5114749;28;20403;-69
2023/07/12 03:36:15;;;;;;;12.77;3.47;;;16.30;99.90;;;;;;5113768;28;20079;-68
2023/07/12 03:38:41;;;;;;;10.70;3.00;;;16.30;99.90;;;;;;5115879;27;20051;-69
2023/07/12 03:41:09;;;;;;;12.00;3.10;;;16.30;99.90;;;;;;5135564;27;20114;-71
2023/07/12 03:43:35;;;;;;;13.00;3.95;;;16.30;99.90;;;;;;5135810;27;20039;-68
2023/07/12 03:46:02;;;;;;;11.05;3.42;;;16.20;99.90;;;;;;5136118;27;20039;-69
2023/07/12 03:48:28;;;;;;;10.90;3.58;;;16.30;99.90;;;;;;5116839;27;20051;-69
2023/07/12 03:50:57;;;;;;;17.15;3.15;;;16.30;99.90;;;;;;5135309;27;20107;-69
2023/07/12 03:53:24;;;;;;;12.15;3.40;;;16.20;99.90;;;;;;5135092;27;20047;-69
2023/07/12 03:55:49;;;;;;;;;;;16.20;99.90;;;;;;5117693;27;20105;-68
2023/07/12 03:58:19;;;;;;;12.87;3.03;;;16.20;99.90;;;;;;5135263;27;19919;-69
2023/07/12 04:00:47;;;;;;;11.27;3.65;;;16.10;99.90;;;;;;5099717;27;20043;-69
2023/07/12 04:03:13;;;;;;;8.32;3.40;;;16.10;99.90;;;;;;5134667;27;20390;-69
2023/07/12 04:05:41;;;;;;;13.77;3.73;;;16.20;99.90;;;;;;5134599;27;20042;-68
2023/07/12 04:08:08;;;;;;;12.32;3.35;;;16.10;99.90;;;;;;5135043;27;20043;-69
2023/07/12 04:10:34;;;;;;;10.63;3.42;;;16.20;99.90;;;;;;5116232;27;20054;-69
2023/07/12 04:13:01;;;;;;;9.10;3.13;;;16.20;99.90;;;;;;5134922;27;20047;-69
2023/07/12 04:15:27;;;;;;;11.00;3.25;;;16.20;99.90;;;;;;5116342;27;20042;-70
2023/07/12 04:17:52;;;;;;;15.23;3.58;;;16.20;99.90;;;;;;5134833;27;20039;-69
2023/07/12 04:20:18;;;;;;;10.83;3.20;;;16.20;99.90;;;;;;5116402;27;20047;-69
2023/07/12 04:22:51;;;;;;;13.70;3.10;;;16.20;99.90;;;;;;5116706;27;20043;-69
2023/07/12 04:25:18;;;;;;;12.95;3.50;;;16.20;99.90;;;;;;5134890;27;20046;-70
2023/07/12 04:27:44;;;;;;;11.68;3.70;;;16.20;99.90;;;;;;5099674;27;20119;-70
2023/07/12 04:30:15;;;;;;;11.55;3.45;;;16.10;99.90;;;;;;5134570;27;20049;-70
2023/07/12 04:32:41;;;;;;;10.98;3.00;;;16.20;99.90;;;;;;5135275;27;20035;-69
2023/07/12 04:35:08;;;;;;;9.47;3.17;;;16.10;99.90;;;;;;5134495;27;20490;-69
2023/07/12 04:37:34;;;;;;;14.68;3.30;;;16.10;99.90;;;;;;5133742;27;20122;-70
2023/07/12 04:40:00;;;;;;;11.07;3.20;;;16.10;99.90;;;;;;5134167;27;20062;-68
2023/07/12 04:42:26;;;;;;;9.83;3.20;;;16.10;99.90;;;;;;5134916;27;20043;-75
2023/07/12 04:44:52;;;;;;;9.93;2.97;;;16.10;99.90;;;;;;5116087;27;20035;-68
2023/07/12 04:47:18;;;;;;;12.50;3.35;;;16.00;99.90;;;;;;5134088;27;20066;-69
2023/07/12 04:49:44;;;;;;;12.60;3.07;;;16.00;99.90;;;;;;5151120;27;20130;-70
2023/07/12 04:52:12;;;;;;;16.07;3.30;;;16.00;99.90;;;;;;5134749;27;20039;-70
2023/07/12 04:54:41;;;;;;;12.80;3.42;;;16.00;99.90;;;;;;5133952;27;20183;-70
2023/07/12 04:57:07;;;;;;;13.07;3.65;;;16.10;99.90;;;;;;5134334;27;20047;-71
2023/07/12 04:59:33;;;;;;;14.05;3.55;;;16.10;99.90;;;;;;5116232;27;20558;-71
2023/07/12 05:01:58;;;;;;;11.75;3.35;;;16.20;99.90;;;;;;5134195;27;20051;-67
2023/07/12 05:04:24;;;;;;;13.18;3.70;;;16.20;99.90;;;;;;5133976;27;20432;-69
2023/07/12 05:06:51;;;;;;;10.77;3.20;;;16.20;99.90;;;;;;5098170;27;20055;-70
2023/07/12 05:09:18;;;;;;;10.65;3.35;;;16.30;99.90;;;;;;5134007;28;20086;-71
2023/07/12 05:11:43;;;;;;;12.75;3.25;;;16.30;99.90;;;;;;5133373;28;20083;-71
2023/07/12 05:14:09;;;;;;;8.70;3.33;;;16.40;99.90;;;;;;5100003;28;20473;-72
2023/07/12 05:16:35;;;;;;;11.07;3.60;;;16.40;99.90;;;;;;5137769;27;20100;-73
2023/07/12 05:19:01;;;;;;;15.60;4.13;;;16.50;99.90;;;;;;5137981;27;20043;-70
2023/07/12 05:21:26;;;;;;;12.95;3.90;;;16.60;99.90;;;;;;5120017;27;20058;-71
2023/07/12 05:23:52;;;;;;;14.60;3.33;;;16.60;99.90;;;;;;5119808;27;20103;-66
2023/07/12 05:26:18;;;;;;;13.30;4.37;;;16.60;99.90;;;;;;5120208;27;20077;-70
2023/07/12 05:28:43;;;;;;;14.55;4.70;;;16.50;99.90;;;;;;5138062;27;20397;-70
2023/07/12 05:31:11;;;;;;;14.32;4.10;;;16.40;99.90;;;;;;5138086;27;20102;-69
2023/07/12 05:33:41;;;;;;;15.82;4.65;;;16.50;99.90;;;;;;5137848;27;20134;-70
2023/07/12 05:36:07;;;;;;;15.15;4.78;;;16.50;99.90;;;;;;5137953;27;20035;-70
2023/07/12 05:38:33;;;;;;;14.63;5.13;;;16.60;99.90;;;;;;5119596;27;20055;-69
2023/07/12 05:40:59;;;;;;;14.52;5.15;;;16.60;99.90;;;;;;5119921;27;20051;-71
2023/07/12 05:43:25;;;;;;;16.23;5.40;;;16.60;99.90;;;;;;5137537;27;20043;-70
2023/07/12 05:45:52;;;;;;;18.15;5.90;;;16.70;99.90;;;;;;5137508;27;20055;-73
2023/07/12 05:48:19;;;;;;;17.33;6.75;;;16.70;99.90;;;;;;5137586;27;20082;-69
2023/07/12 05:50:50;;;;;;;13.02;4.03;;;16.70;99.90;;;;;;5137726;27;20075;-68
2023/07/12 05:53:16;;;;;;;15.43;6.43;;;16.80;99.90;;;;;;5119701;27;20072;-69
2023/07/12 05:55:41;;;;;;;16.50;6.40;;;17.00;99.90;;;;;;5137342;27;20047;-72
2023/07/12 05:58:07;;;;;;;16.10;6.18;;;17.10;99.90;;;;;;5119173;27;20457;-68
2023/07/12 06:00:33;;;;;;;16.50;5.47;;;17.20;99.90;;;;;;5119266;27;20062;-69
2023/07/12 06:02:58;;;;;;;19.37;7.27;;;17.20;99.90;;;;;;5136435;27;20467;-69
2023/07/12 06:05:24;;;;;;;16.70;7.23;;;17.30;99.90;;;;;;5119072;27;20042;-72
2023/07/12 06:07:50;;;;;;;17.33;6.70;;;17.20;99.90;;;;;;5119104;27;20047;-68
2023/07/12 06:10:16;;;;;;;19.65;7.60;;;17.30;99.90;;;;;;5137857;27;20078;-70
2023/07/12 06:12:43;;;;;;;16.45;6.65;;;17.40;99.90;;;;;;5137305;27;20043;-68
2023/07/12 06:15:09;;;;;;;15.65;7.50;;;17.40;99.90;;;;;;5118820;27;20045;-69
2023/07/12 06:17:35;;;;;;;18.55;8.23;;;17.50;99.90;;;;;;5137170;27;20054;-70
2023/07/12 06:20:00;;;;;;;16.80;8.47;;;17.40;99.90;;;;;;5137136;27;20047;-69
2023/07/12 06:22:26;;;;;;;15.80;7.33;;;17.50;99.90;;;;;;5137032;27;20562;-70
2023/07/12 06:24:52;;;;;;;21.03;8.10;;;17.50;99.90;;;;;;5102071;27;20054;-71
2023/07/12 06:27:18;;;;;;;21.65;8.52;;;17.60;99.90;;;;;;5137088;27;20051;-70
2023/07/12 06:29:48;;;;;;;22.23;7.70;;;17.70;99.90;;;;;;5136477;27;20054;-70
2023/07/12 06:32:14;;;;;;;14.77;7.65;;;17.80;99.90;;;;;;5136878;27;20038;-69
2023/07/12 06:34:40;;;;;;;17.02;8.30;;;17.90;99.90;;;;;;5136704;27;20039;-73
2023/07/12 06:37:08;;;;;;;22.10;7.90;;;17.90;99.90;;;;;;5136496;27;20039;-70
2023/07/12 06:39:35;;;;;;;16.27;7.70;;;17.90;99.90;;;;;;5136481;27;20130;-71
2023/07/12 06:42:01;;;;;;;17.92;6.95;;;17.90;99.90;;;;;;5136577;27;20051;-69
2023/07/12 06:44:26;;;;;;;12.57;7.00;;;17.90;99.90;;;;;;5152996;27;20548;-69
2023/07/12 06:46:52;;;;;;;17.70;6.93;;;18.00;99.90;;;;;;5118500;27;20051;-70
2023/07/12 06:49:18;;;;;;;14.50;6.93;;;18.10;99.90;;;;;;5136926;27;20493;-70
2023/07/12 06:51:46;;;;;;;17.67;6.93;;;18.20;99.90;;;;;;5101715;27;20474;-68
2023/07/12 06:54:16;;;;;;;13.35;7.05;;;18.10;99.90;;;;;;5118732;27;20140;-70
2023/07/12 06:56:43;;;;;;;14.68;5.47;;;18.30;99.90;;;;;;5118910;27;20079;-70
2023/07/12 06:59:10;;;;;;;15.27;5.57;;;18.30;99.90;;;;;;5117859;27;20486;-72
2023/07/12 07:01:35;;;;;;;17.40;6.57;;;18.50;99.90;;;;;;5118461;27;20054;-70
2023/07/12 07:04:03;;;;;;;16.50;6.80;;;18.50;99.90;;;;;;5118179;27;20040;-70
2023/07/12 07:06:29;;;;;;;12.77;6.40;;;18.50;99.90;;;;;;5136449;27;20055;-70
2023/07/12 07:08:55;;;;;;;14.07;6.60;;;18.50;99.90;;;;;;5118565;27;20047;-70
2023/07/12 07:11:20;;;;;;;14.23;6.30;;;18.50;99.90;;;;;;5152678;27;20045;-69
2023/07/12 07:13:47;;;;;;;14.60;5.30;;;18.50;99.90;;;;;;5136465;27;20035;-72
2023/07/12 07:16:13;;;;;;;;;;;18.50;99.90;;;;;;5136619;27;20047;-71
2023/07/12 07:18:38;;;;;;;12.00;5.53;;;18.60;99.90;;;;;;5118315;27;19920;-71
2023/07/12 07:21:05;;;;;;;11.80;5.67;;;18.60;99.90;;;;;;5101488;27;20074;-69
2023/07/12 07:23:31;;;;;;;12.27;4.97;;;18.70;99.90;;;;;;5118877;27;20038;-72
2023/07/12 07:26:09;;;;;;;15.13;6.13;;;18.80;99.90;;;;;;5135968;27;20761;-72
2023/07/12 07:28:35;;;;;;;10.80;5.50;;;18.80;99.90;;;;;;5117630;27;20050;-70
2023/07/12 07:31:02;;;;;;;13.15;5.75;;;18.90;99.90;;;;;;5100584;27;20053;-70
2023/07/12 07:33:28;;;;;;;14.85;5.70;;;19.00;99.90;;;;;;5135959;27;20090;-69
2023/07/12 07:35:56;;;;;;;16.47;5.40;;;19.10;99.90;;;;;;5135535;27;20459;-70
2023/07/12 07:38:26;;;;;;;11.05;5.22;;;19.20;99.90;;;;;;5151199;27;20043;-69
2023/07/12 07:40:53;;;;;;;15.30;5.20;;;19.20;99.90;;;;;;5136394;27;20062;-69
2023/07/12 07:43:19;;;;;;;14.98;5.10;;;19.20;99.90;;;;;;5100737;27;20047;-70
2023/07/12 07:45:45;;;;;;;11.80;5.50;;;19.10;99.90;;;;;;5117918;27;20072;-72
2023/07/12 07:48:10;;;;;;;11.33;5.13;;;19.20;99.90;;;;;;5136176;27;20047;-70
2023/07/12 07:50:40;;;;;;;14.23;4.67;;;19.20;99.90;;;;;;5136150;27;20127;-69
2023/07/12 07:53:05;;;;;;;14.07;5.10;;;19.30;99.90;;;;;;5135561;27;20047;-71
2023/07/12 07:55:32;;;;;;;13.57;4.87;;;19.40;99.90;;;;;;5135552;27;20382;-71
2023/07/12 07:57:58;;;;;;;14.40;4.53;;;19.60;99.90;;;;;;5117194;27;20055;-72
2023/07/12 08:00:23;;;;;;;13.33;4.97;;;19.70;99.90;;;;;;5117088;27;20047;-69
2023/07/12 08:02:49;;;;;;;13.30;4.07;;;20.00;99.90;;;;;;5135363;27;20047;-71
2023/07/12 08:05:16;;;;;;;17.53;4.50;;;20.20;99.90;;;;;;5117293;27;20050;-68
2023/07/12 08:07:47;;;;;;;19.52;5.07;;;20.20;99.90;;;;;;5117262;27;20047;-70
2023/07/12 08:10:16;;;;;;;11.73;4.05;;;20.20;99.90;;;;;;5135153;27;20042;-69
2023/07/12 08:12:42;;;;;;;11.52;4.35;;;20.20;99.90;;;;;;5134927;27;20078;-69
2023/07/12 08:15:09;;;;;;;11.27;4.50;;;20.30;99.90;;;;;;5151666;27;20119;-71
2023/07/12 08:17:35;;;;;;;17.27;5.00;;;20.40;99.90;;;;;;5116791;27;20043;-70
2023/07/12 08:20:03;;;;;;;15.38;4.78;;;20.50;99.90;;;;;;5116250;27;20053;-69
2023/07/12 08:22:28;;;;;;;16.27;5.65;;;20.50;99.90;;;;;;5117074;27;20047;-69
2023/07/12 08:24:54;;;;;;;16.73;5.87;;;20.60;99.90;;;;;;5135192;27;20046;-72
2023/07/12 08:27:20;;;;;;;16.07;5.93;;;20.40;99.90;;;;;;5116751;27;20047;-70
2023/07/12 08:29:45;;;;;;;10.80;5.53;;;20.30;99.90;;;;;;5135663;27;20043;-73
2023/07/12 08:32:11;;;;;;;9.97;5.37;;;20.20;99.90;;;;;;5134840;27;20474;-71
2023/07/12 08:34:37;;;;;;;16.77;6.13;;;20.20;99.90;;;;;;5134758;27;20122;-71
2023/07/12 08:37:04;;;;;;;14.38;6.05;;;20.30;99.90;;;;;;5134668;27;20047;-69
2023/07/12 08:39:30;;;;;;;16.73;5.30;;;20.50;99.90;;;;;;5115994;27;20142;-71
2023/07/12 08:41:57;;;;;;;13.97;5.40;;;20.80;99.90;;;;;;5134735;27;20086;-73
2023/07/12 08:44:23;;;;;;;15.50;5.20;;;21.00;99.90;;;;;;5134315;27;20479;-72
2023/07/12 08:46:57;;;;;;;15.00;5.40;;;21.10;99.90;;;;;;5134174;27;20050;-71
2023/07/12 08:49:24;;;;;;;13.55;5.38;;;21.10;99.90;;;;;;5134527;27;20172;-69
2023/07/12 08:51:52;;;;;;;13.55;5.13;;;21.00;99.90;;;;;;5134503;27;20080;-70
2023/07/12 08:54:23;;;;;;;13.52;5.43;;;20.90;99.90;;;;;;5099149;27;20035;-69
2023/07/12 08:56:55;;;;;;;15.50;5.40;;;20.80;99.90;;;;;;5100180;27;20047;-70
2023/07/12 08:59:21;;;;;;;13.13;5.90;;;20.90;99.90;;;;;;5151009;27;20116;-70
2023/07/12 09:01:49;;;;;;;17.97;5.63;;;20.70;99.90;;;;;;5134324;27;20483;-70
2023/07/12 09:04:27;;;;;;;18.05;6.75;;;20.50;99.90;;;;;;5133991;27;20752;-72
2023/07/12 09:06:59;;;;;;;15.55;6.45;;;20.20;99.90;;;;;;5115801;27;20043;-72
2023/07/12 09:09:27;;;;;;;14.05;6.18;;;19.80;99.90;;;;;;5116051;28;20479;-71
2023/07/12 09:11:54;;;;;;;16.58;6.72;;;19.60;99.90;;;;;;5134399;28;20104;-72
2023/07/12 09:14:22;;;;;;;17.13;6.43;;;19.40;99.90;;;;;;5134086;28;20057;-72
2023/07/12 09:16:54;;;;;;;15.48;6.72;;;19.30;99.90;;;;;;5116107;28;20479;-71
2023/07/12 09:19:23;;;;;;;16.83;6.70;;;19.20;99.90;;;;;;5115739;28;20051;-72
2023/07/12 09:21:55;;;;;;;15.35;6.47;;;19.10;99.90;;;;;;5134209;28;20058;-72
2023/07/12 09:24:24;;;;;;;17.30;7.00;;;19.30;99.90;;;;;;5133940;28;20036;-71
2023/07/12 09:26:51;;;;;;;18.75;6.65;;;19.60;99.90;;;;;;5116188;28;20153;-72
2023/07/12 09:29:28;;;;;;;15.18;6.40;;;19.70;99.90;;;;;;5134045;28;20123;-72
2023/07/12 09:32:00;;;;;;;17.05;7.38;;;19.90;99.90;;;;;;5116213;28;20047;-75
2023/07/12 09:34:39;;;;;;;16.17;6.13;;;19.90;99.90;;;;;;5134503;28;20039;-70
2023/07/12 09:37:13;;;;;;;20.00;6.78;;;19.80;99.90;;;;;;5115846;28;20134;-70
2023/07/12 09:39:39;;;;;;;23.42;7.75;;;19.70;99.90;;;;;;5116034;28;20074;-67
2023/07/12 09:42:05;;;;;;;12.97;6.87;;;19.50;99.90;;;;;;5115699;28;20047;-70
2023/07/12 09:44:30;;;;;;;13.83;7.00;;;19.30;99.90;;;;;;5134645;28;20043;-69
2023/07/12 09:46:59;;;;;;;14.53;6.13;;;19.10;99.90;;;;;;5134441;28;20043;-68
2023/07/12 09:49:38;;;;;;;11.63;5.00;;;19.10;99.90;;;;;;5133583;28;20091;-67
2023/07/12 09:52:14;;;;;;;11.27;6.30;;;19.20;99.90;;;;;;5115765;28;20078;-69
2023/07/12 09:54:55;;;;;;;14.55;5.95;;;19.40;99.90;;;;;;5133573;28;20479;-71
2023/07/12 09:57:48;;;;;;;14.00;6.00;;;19.60;99.90;;;;;;5133049;28;20044;-69
2023/07/12 10:00:37;;;;;;;16.63;6.30;;;19.70;99.90;;;;;;5114496;27;20082;-69
2023/07/12 10:03:24;;;;;;;15.38;5.70;;;20.00;99.90;;;;;;5117557;27;20035;-69
2023/07/12 10:05:55;;;;;;;;;;;20.20;99.90;;;;;;5137872;27;20058;-69
2023/07/12 10:08:23;;;;;;;12.52;4.90;;;20.30;99.90;;;;;;5135975;27;20047;-69
2023/07/12 10:11:18;;;;;;;17.48;5.25;;;20.50;99.90;;;;;;5117805;27;20167;-70
2023/07/12 10:13:49;;;;;;;17.75;4.43;;;20.50;99.90;;;;;;5115359;27;20090;-71
2023/07/12 10:16:21;;;;;;;18.45;4.50;;;20.60;99.90;;;;;;5118223;27;20080;-71
2023/07/12 10:18:49;;;;;;;15.60;4.60;;;20.50;99.90;;;;;;5119142;27;20475;-71
2023/07/12 10:21:21;;;;;;;15.52;4.85;;;20.60;99.90;;;;;;5152711;27;20467;-70
2023/07/12 10:23:58;;;;;;;14.13;4.95;;;20.50;99.90;;;;;;5136535;27;20072;-71
2023/07/12 10:26:24;;;;;;;19.00;5.85;;;20.50;99.90;;;;;;5118224;27;20475;-72
2023/07/12 10:29:04;;;;;;;16.50;4.90;;;20.40;99.90;;;;;;5118504;27;20095;-72
2023/07/12 10:31:36;;;;;;;12.32;3.97;;;20.50;99.90;;;;;;5118272;27;20043;-72
2023/07/12 10:34:31;;;;;;;10.43;3.90;;;20.60;99.90;;;;;;5118382;27;20047;-70
2023/07/12 10:37:05;;;;;;;11.90;4.57;;;20.80;99.90;;;;;;5134826;27;20159;-71
2023/07/12 10:39:32;;;;;;;14.98;4.35;;;21.00;99.90;;;;;;5137509;27;20101;-69
2023/07/12 10:42:10;;;;;;;10.20;3.60;;;21.10;99.90;;;;;;5152855;27;20479;-73
2023/07/12 10:44:44;;;;;;;12.07;4.22;;;21.30;99.90;;;;;;5137518;27;20498;-72
2023/07/12 10:47:15;;;;;;;11.93;3.65;;;21.40;99.90;;;;;;5153770;27;20395;-73
2023/07/12 10:50:02;;;;;;;10.15;4.30;;;21.50;99.90;;;;;;5136761;27;20054;-72
2023/07/12 10:52:32;;;;;;;;;;;21.60;99.90;;;;;;5137048;27;20439;-73
2023/07/12 10:55:18;;;;;;;11.55;4.55;;;21.60;99.90;;;;;;5136618;27;20018;-72
2023/07/12 10:57:49;;;;;;;11.45;4.10;;;21.50;99.90;;;;;;5137457;27;20067;-74
2023/07/12 11:00:18;;;;;;;12.57;4.65;;;21.50;99.90;;;;;;5118664;27;20396;-75
2023/07/12 11:02:48;;;;;;;14.23;4.60;;;21.50;99.90;;;;;;5118131;27;20199;-72
2023/07/12 11:05:37;;;;;;;11.10;4.13;;;21.70;99.90;;;;;;5118932;27;20043;-70
2023/07/12 11:08:04;;;;;;;10.45;3.70;;;22.00;99.90;;;;;;5136477;27;20399;-72
2023/07/12 11:10:36;;;;;;;16.15;4.30;;;22.30;99.90;;;;;;5136293;27;20047;-71
2023/07/12 11:13:11;;;;;;;10.98;4.00;;;22.30;99.90;;;;;;5117368;27;20047;-71
2023/07/12 11:16:17;;;;;;;11.57;3.88;;;22.50;99.90;;;;;;5136149;27;20078;-72
2023/07/12 11:18:57;;;;;;;10.30;3.92;;;22.30;99.90;;;;;;5124590;27;20127;-71
2023/07/12 11:22:11;;;;;;;9.48;3.58;;;22.50;99.90;;;;;;5136758;27;20366;-70
2023/07/12 11:24:39;;;;;;;13.20;4.22;;;22.60;99.90;;;;;;5035960;28;20106;-71
2023/07/12 11:27:23;;;;;;;14.15;4.15;;;22.90;99.90;;;;;;5035824;28;20087;-70
2023/07/12 11:29:54;;;;;;;10.13;3.13;;;23.20;99.90;;;;;;5109191;27;20059;-71
2023/07/12 11:32:33;;;;;;;9.90;3.55;;;23.30;99.90;;;;;;5118018;27;20047;-72
2023/07/12 11:35:36;;;;;;;5.57;2.28;;;23.30;99.90;;;;;;5136688;27;20039;-70
2023/07/12 11:38:04;;;;;;;8.43;1.70;;;23.20;99.90;;;;;;5110472;27;20043;-70
2023/07/12 11:40:31;;;;;;;;;;;23.30;99.90;;;;;;5136402;27;20115;-70
2023/07/12 11:43:28;;;;;;;6.47;1.52;;;23.30;99.90;;;;;;5117660;27;20010;-70
2023/07/12 11:45:56;;;;;;;5.10;1.23;;;23.50;99.90;;;;;;5135361;27;20136;-70
2023/07/12 11:48:23;;;;;;;5.22;1.00;;;23.30;99.90;;;;;;5117297;27;20105;-72
2023/07/12 11:50:51;;;;;;;6.05;1.10;;;23.10;99.90;;;;;;5117366;27;20057;-71
2023/07/12 11:53:18;;;;;;;6.25;1.02;;;23.00;99.90;;;;;;5136221;27;20146;-72
2023/07/12 11:55:47;;;;;;;4.80;1.02;;;22.90;99.90;;;;;;5117309;27;20090;-71
2023/07/12 11:58:20;;;;;;;4.30;0.95;;;22.80;99.90;;;;;;5117865;27;20053;-70
2023/07/12 12:00:47;;;;;;;4.82;1.13;;;22.70;99.90;;;;;;5136220;27;20071;-70
2023/07/12 12:03:14;;;;;;;7.40;1.02;;;22.50;99.90;;;;;;5134735;27;20039;-71
2023/07/12 12:05:41;;;;;;;3.58;0.93;;;22.50;99.90;;;;;;5135045;27;20095;-70
2023/07/12 12:08:07;;;;;;;;;;;22.60;99.90;;;;;;5116912;27;20043;-70
2023/07/12 12:10:40;;;;;;;7.07;1.05;;;22.70;99.90;;;;;;5116655;27;19919;-70
2023/07/12 12:13:18;;;;;;;3.25;0.90;;;22.90;99.90;;;;;;5100602;27;20054;-71
2023/07/12 12:15:50;;;;;;;3.97;1.20;;;23.00;99.90;;;;;;5134968;27;20095;-70
2023/07/12 12:18:19;;;;;;;4.15;1.17;;;23.20;99.90;;;;;;5116776;27;20051;-70
2023/07/12 12:21:04;;;;;;;5.53;1.48;;;23.50;99.90;;;;;;5117587;27;20175;-71
2023/07/12 12:23:36;;;;;;;6.28;1.10;;;23.30;99.90;;;;;;5135497;27;20123;-70
2023/07/12 12:26:14;;;;;;;5.25;1.38;;;23.20;99.90;;;;;;5117017;27;20138;-70
2023/07/12 12:28:43;;;;;;;4.47;1.08;;;23.20;99.90;;;;;;5117268;27;20055;-69
2023/07/12 12:31:16;;;;;;;5.18;0.85;;;23.10;99.90;;;;;;5134515;27;20057;-67
2023/07/12 12:34:15;;;;;;;3.83;0.93;;;23.10;99.90;;;;;;5134632;27;20107;-69
2023/07/12 12:36:59;;;;;;;2.97;0.88;;;23.00;99.90;;;;;;5111342;27;20058;-71
2023/07/12 12:39:25;;;;;;;7.50;1.02;;;22.90;99.90;;;;;;5096634;28;20060;-71
2023/07/12 12:42:16;;;;;;;3.50;0.90;;;23.00;99.90;;;;;;5114325;28;20368;-71
2023/07/12 12:44:41;;;;;;;5.40;0.90;;;23.10;99.90;;;;;;5095185;28;20189;-71
2023/07/12 12:47:27;;;;;;;3.37;0.80;;;23.10;99.90;;;;;;5096945;28;20118;-70
2023/07/12 12:49:53;;;;;;;4.53;0.90;;;23.10;99.90;;;;;;5113828;28;20117;-72
2023/07/12 12:52:26;;;;;;;3.07;0.80;;;23.00;99.90;;;;;;5113781;28;20055;-72
2023/07/12 12:54:53;;;;;;;4.30;0.95;;;23.00;99.90;;;;;;5112413;28;20054;-71